RCFN

Details ICAO RCFN (TTT)
Name FENGNIN
Region Republic of China (Taiwan)
Timezone Asia/Taipei (UTC+8.0)
Plans Departing 11
Arriving 30
Stats Elevation 143 ft / 44 m (AMSL)
Location 22.754872° 121.101650°
Runways 1
Magnetic Variation 3.902° W
Sunrise 2017-12-12 22:28:22 UTC / 2017-12-13 06:28:22 Local
Sunset 2017-12-13 09:13:45 UTC / 2017-12-13 17:13:45 Local
Advertisement - Login to hide

Runways

ID Width Length Bearing (true) Bearing (mag) Surface Threshold Offset Overrun Length
04 148 ft / 45 m 8,019 ft / 2,444 m 38.51° 42.41° Asphalt 0 ft / 0 m 750 ft / 229 m
22 148 ft / 45 m 8,019 ft / 2,444 m 218.52° 222.42° Asphalt 0 ft / 0 m 745 ft / 227 m

Map

Weather


0- 5 10 15 20 25 30 35+ Temperature / ° C

Clouds and Precipitation
Forecast for 2017-12-12 18:00 UTC. Updated 33 minutes ago

Ground ~20,000 ft ~40,000 ft Winds

METAR

Not found

TAF

TAF TAF RCFN 121109Z 1212/1312 35005KT 9999 FEW015 BKN032 BKN060 TEMPO 1222/1301 5000 RA FEW012 BKN022 BKN050 BECMG 1301/1303 05010KT TEMPO 1304/1310 06012G22KT 5000 RA FEW012 BKN022 BKN050

Frequencies

Recorded 127.00 MHz ATIS
Tower 118.10 MHz TWR
Approach 123.10 MHz TAITUNG APP
Tower 121.90 MHz TWR
Approach 119.40 MHz TAITUNG APP
Warning: Do not use this data for real-world aviation or navigation. No guarantee of current accuracy is given.